Time;durP1;ratioP1;P1;durP2;ratioP2;P2;SDS_P1;SDS_P2;PMS_P1;PMS_P2;Temp;Humidity;BMP_temperature;BMP_pressure;BME280_temperature;BME280_humidity;BME280_pressure;Samples;Min_cycle;Max_cycle;Signal;HPM_P1;HPM_P2
2022/12/31 00:01:05;;;;;;;1.27;0.47;;;;;;;12.02;100.00;98539.50;5032745;28;20021;-72
2022/12/31 00:03:30;;;;;;;1.08;0.30;;;;;;;12.16;100.00;98540.25;5045975;28;20029;-72
2022/12/31 00:05:56;;;;;;;3.70;0.40;;;;;;;12.13;100.00;98527.16;5049161;28;20768;-72
2022/12/31 00:08:21;;;;;;;0.52;0.20;;;;;;;12.27;100.00;98538.72;5038410;28;20390;-72
2022/12/31 00:10:46;;;;;;;1.10;0.32;;;;;;;12.33;100.00;98534.28;5037115;28;20036;-72
2022/12/31 00:13:12;;;;;;;0.28;0.22;;;;;;;12.41;100.00;98528.56;5035626;28;20033;-73
2022/12/31 00:15:39;;;;;;;0.60;0.20;;;;;;;12.47;100.00;98538.53;5012521;28;20079;-72
2022/12/31 00:18:05;;;;;;;0.20;0.10;;;;;;;12.52;100.00;98537.88;5031518;28;20029;-72
2022/12/31 00:20:30;;;;;;;0.20;0.20;;;;;;;12.50;100.00;98543.53;5044247;28;20048;-72
2022/12/31 00:22:56;;;;;;;1.45;0.30;;;;;;;12.49;100.00;98536.44;5042229;28;20025;-73
2022/12/31 00:25:21;;;;;;;0.40;0.35;;;;;;;12.42;100.00;98543.81;5036694;28;20406;-72
2022/12/31 00:27:46;;;;;;;0.60;0.40;;;;;;;12.25;100.00;98541.63;5034659;28;20638;-72
2022/12/31 00:30:12;;;;;;;0.73;0.38;;;;;;;12.10;100.00;98524.03;5065416;22;20017;-73
2022/12/31 00:32:37;;;;;;;1.10;0.55;;;;;;;12.10;100.00;98540.28;5043856;28;20167;-71
2022/12/31 00:35:03;;;;;;;3.38;0.52;;;;;;;12.07;100.00;98536.97;5038533;28;20335;-75
2022/12/31 00:37:29;;;;;;;2.03;0.50;;;;;;;12.17;100.00;98558.19;5044860;28;20044;-75
2022/12/31 00:39:54;;;;;;;0.50;0.40;;;;;;;12.00;100.00;98538.91;5044819;28;20047;-73
2022/12/31 00:42:19;;;;;;;0.57;0.30;;;;;;;12.14;100.00;98565.94;5021341;28;20018;-73
2022/12/31 00:44:44;;;;;;;1.83;0.45;;;;;;;12.06;100.00;98550.75;5046127;28;20025;-74
2022/12/31 00:47:10;;;;;;;1.30;0.47;;;;;;;12.06;100.00;98554.28;5058850;28;20043;-74
2022/12/31 00:49:35;;;;;;;1.98;0.50;;;;;;;12.09;100.00;98561.16;5052359;28;20058;-73
2022/12/31 00:52:00;;;;;;;0.50;0.50;;;;;;;12.12;100.00;98562.59;5062235;28;20029;-74
2022/12/31 00:54:26;;;;;;;2.13;0.55;;;;;;;12.12;100.00;98549.03;5040959;28;20024;-75
2022/12/31 00:56:51;;;;;;;0.55;0.30;;;;;;;12.07;100.00;98542.38;5061323;28;20033;-75
2022/12/31 00:59:16;;;;;;;2.47;0.52;;;;;;;12.14;100.00;98552.38;5053906;28;20383;-75
2022/12/31 01:01:42;;;;;;;0.82;0.50;;;;;;;12.28;100.00;98581.06;5051861;28;20107;-76
2022/12/31 01:04:11;;;;;;;0.65;0.50;;;;;;;12.14;100.00;98549.66;5048486;28;20037;-75
2022/12/31 01:06:37;;;;;;;0.43;0.30;;;;;;;12.31;100.00;98588.75;5067823;28;20485;-74
2022/12/31 01:09:04;;;;;;;1.20;0.40;;;;;;;12.36;100.00;98586.22;5056180;28;20099;-76
2022/12/31 01:11:29;;;;;;;0.75;0.60;;;;;;;12.31;100.00;98580.59;5040500;28;20020;-74
2022/12/31 01:13:56;;;;;;;2.33;0.60;;;;;;;12.43;100.00;98597.84;5034557;28;20394;-73
2022/12/31 01:16:25;;;;;;;0.55;0.22;;;;;;;12.33;100.00;98583.13;5041865;28;20052;-74
2022/12/31 01:18:50;;;;;;;1.35;0.38;;;;;;;12.37;100.00;98584.34;5050980;28;20104;-76
2022/12/31 01:21:17;;;;;;;0.63;0.32;;;;;;;12.47;100.00;98596.38;5041355;28;20109;-77
2022/12/31 01:23:43;;;;;;;0.25;0.22;;;;;;;12.46;100.00;98604.72;5046958;28;20122;-76
2022/12/31 01:26:11;;;;;;;1.05;0.50;;;;;;;12.51;100.00;98607.59;5033410;28;20699;-73
2022/12/31 01:28:37;;;;;;;0.38;0.30;;;;;;;12.48;100.00;98610.75;5053519;28;20420;-73
2022/12/31 01:31:10;;;;;;;0.35;0.35;;;;;;;12.37;100.00;98590.59;5053714;28;20116;-73
2022/12/31 01:33:36;;;;;;;0.52;0.22;;;;;;;12.34;100.00;98591.03;5047368;28;20375;-73
2022/12/31 01:36:07;;;;;;;0.73;0.30;;;;;;;12.46;100.00;98600.13;5044795;28;20082;-73
2022/12/31 01:38:33;;;;;;;0.73;0.40;;;;;;;12.55;100.00;98608.84;5046442;28;20031;-72
2022/12/31 01:40:58;;;;;;;0.40;0.30;;;;;;;12.59;100.00;98615.47;5061914;28;20075;-72
2022/12/31 01:43:53;;;;;;;0.40;0.20;;;;;;;12.82;100.00;98625.72;5041114;28;20449;-73
2022/12/31 01:46:27;;;;;;;1.45;0.35;;;;;;;12.77;100.00;98605.72;5030691;28;20026;-73
2022/12/31 01:48:56;;;;;;;1.55;0.35;;;;;;;12.87;100.00;98623.16;5014905;28;20059;-72
2022/12/31 01:51:24;;;;;;;0.90;0.20;;;;;;;12.70;100.00;98611.19;5047445;28;20033;-74
2022/12/31 01:53:50;;;;;;;1.55;0.20;;;;;;;12.68;100.00;98608.72;5045826;28;20079;-72
2022/12/31 01:56:18;;;;;;;0.88;0.30;;;;;;;12.65;100.00;98620.03;5047731;28;20526;-73
2022/12/31 01:58:48;;;;;;;0.30;0.10;;;;;;;12.51;100.00;98610.31;5022023;28;20623;-74
2022/12/31 02:01:24;;;;;;;0.30;0.20;;;;;;;12.50;100.00;98623.06;5042989;28;20033;-73
2022/12/31 02:03:50;;;;;;;2.05;0.28;;;;;;;12.48;100.00;98630.56;5040071;28;20029;-74
2022/12/31 02:06:20;;;;;;;1.48;0.17;;;;;;;12.54;100.00;98625.31;5053955;28;20029;-74
2022/12/31 02:08:46;;;;;;;0.30;0.20;;;;;;;12.37;100.00;98615.00;5043592;28;20031;-74
2022/12/31 02:11:20;;;;;;;0.60;0.25;;;;;;;12.37;100.00;98631.28;5035738;28;20029;-74
2022/12/31 02:13:45;;;;;;;6.55;0.30;;;;;;;12.37;100.00;98625.03;5029630;28;20020;-75
2022/12/31 02:16:21;;;;;;;0.10;0.10;;;;;;;12.30;100.00;98630.50;5053845;28;20440;-72
2022/12/31 02:18:56;;;;;;;2.00;0.40;;;;;;;12.31;100.00;98644.88;5039382;28;20025;-74
2022/12/31 02:21:54;;;;;;;0.40;0.32;;;;;;;12.28;100.00;98633.41;5031222;28;20406;-73
2022/12/31 02:24:40;;;;;;;0.53;0.40;;;;;;;12.32;100.00;98639.25;5028585;28;20041;-74
2022/12/31 02:27:22;;;;;;;0.40;0.30;;;;;;;12.23;100.00;98605.28;5023506;28;20859;-75
2022/12/31 02:29:53;;;;;;;1.02;0.35;;;;;;;12.29;100.00;98626.13;5037175;28;20049;-75
2022/12/31 02:32:27;;;;;;;0.60;0.30;;;;;;;12.24;100.00;98617.81;5015404;28;20029;-73
2022/12/31 02:34:59;;;;;;;1.70;0.20;;;;;;;12.31;100.00;98629.44;5043893;28;20088;-75
2022/12/31 02:37:27;;;;;;;0.80;0.20;;;;;;;12.28;100.00;98638.84;5034806;28;20102;-75
2022/12/31 02:39:53;;;;;;;0.73;0.22;;;;;;;12.21;100.00;98621.81;5051459;28;20017;-75
2022/12/31 02:42:19;;;;;;;0.95;0.30;;;;;;;12.18;100.00;98607.81;5043000;28;20032;-74
2022/12/31 02:44:44;;;;;;;0.40;0.30;;;;;;;12.22;100.00;98615.31;5040700;28;20025;-75
2022/12/31 02:47:29;;;;;;;0.30;0.20;;;;;;;12.31;100.00;98618.59;5051261;28;20025;-74
2022/12/31 02:50:12;;;;;;;0.90;0.40;;;;;;;12.40;100.00;98624.59;5033302;28;20025;-73
2022/12/31 02:53:05;;;;;;;0.38;0.20;;;;;;;12.52;100.00;98620.09;5046014;28;20465;-74
2022/12/31 02:55:42;;;;;;;0.68;0.30;;;;;;;12.42;100.00;98614.38;5029054;28;20033;-74
2022/12/31 03:06:55;;;;;;;0.70;0.38;;;;;;;12.36;100.00;98615.22;5056558;28;20132;-74
2022/12/31 03:09:20;;;;;;;0.30;0.20;;;;;;;12.30;100.00;98622.34;5047497;28;20495;-74
2022/12/31 03:14:29;;;;;;;0.80;0.40;;;;;;;12.49;100.00;98618.66;5039019;28;20036;-74
2022/12/31 03:16:55;;;;;;;0.95;0.55;;;;;;;12.50;100.00;98614.91;5032760;28;20024;-74
2022/12/31 03:27:32;;;;;;;1.02;0.40;;;;;;;12.24;100.00;98628.66;5057807;28;20088;-74
2022/12/31 03:29:57;;;;;;;0.65;0.30;;;;;;;12.31;100.00;98632.16;5028266;28;20033;-76
2022/12/31 03:32:22;;;;;;;0.52;0.35;;;;;;;12.41;100.00;98626.25;5048197;28;20557;-73
2022/12/31 03:34:48;;;;;;;0.73;0.30;;;;;;;12.52;100.00;98633.66;5039084;28;20028;-76
2022/12/31 03:37:13;;;;;;;1.67;0.20;;;;;;;12.52;100.00;98628.25;5052713;28;20466;-75
2022/12/31 03:43:00;;;;;;;1.45;0.32;;;;;;;12.55;100.00;98624.25;5046210;28;20036;-74
2022/12/31 03:45:25;;;;;;;0.85;0.32;;;;;;;12.59;100.00;98636.34;5061322;28;20029;-74
2022/12/31 03:47:51;;;;;;;0.20;0.20;;;;;;;12.69;100.00;98658.41;5049473;28;20047;-75
2022/12/31 03:50:18;;;;;;;1.70;0.50;;;;;;;12.82;100.00;98641.19;5036565;28;20075;-74
2022/12/31 03:52:44;;;;;;;2.78;0.40;;;;;;;12.88;100.00;98657.41;5047124;28;20021;-74
2022/12/31 03:55:10;;;;;;;0.80;0.30;;;;;;;12.90;100.00;98654.47;5047295;28;20033;-74
2022/12/31 03:57:36;;;;;;;2.35;0.43;;;;;;;12.74;100.00;98622.47;5025070;28;20538;-75
2022/12/31 04:00:06;;;;;;;1.00;0.40;;;;;;;12.97;100.00;98646.25;5030251;28;20021;-75
2022/12/31 04:02:31;;;;;;;0.70;0.30;;;;;;;13.00;100.00;98629.53;5036753;28;20029;-74
2022/12/31 04:04:56;;;;;;;0.85;0.32;;;;;;;13.15;100.00;98630.84;5035155;28;20033;-75
2022/12/31 04:07:22;;;;;;;2.53;0.35;;;;;;;13.17;100.00;98633.31;5030877;28;20036;-75
2022/12/31 04:09:48;;;;;;;0.55;0.40;;;;;;;13.31;100.00;98658.53;5043600;28;20033;-74
2022/12/31 04:12:13;;;;;;;0.55;0.30;;;;;;;13.36;100.00;98647.78;5037255;28;20070;-73
2022/12/31 04:14:38;;;;;;;0.50;0.30;;;;;;;13.43;100.00;98647.72;5037861;28;20112;-74
2022/12/31 04:17:04;;;;;;;1.75;0.40;;;;;;;13.54;100.00;98634.19;5042502;28;20059;-74
2022/12/31 04:19:29;;;;;;;1.67;0.32;;;;;;;13.36;100.00;98610.59;5032657;28;20117;-74
2022/12/31 04:21:54;;;;;;;1.00;0.43;;;;;;;13.60;100.00;98643.38;5044649;28;20088;-74
2022/12/31 04:24:20;;;;;;;0.50;0.30;;;;;;;13.56;100.00;98629.38;5047086;28;20504;-74
2022/12/31 04:26:45;;;;;;;0.57;0.30;;;;;;;13.67;100.00;98640.56;5046521;28;20021;-74
2022/12/31 04:29:10;;;;;;;0.80;0.38;;;;;;;13.67;100.00;98632.41;5034418;28;20083;-74
2022/12/31 04:31:36;;;;;;;1.65;0.70;;;;;;;13.67;100.00;98632.41;5009891;28;1068945;-72
2022/12/31 04:34:01;;;;;;;0.98;0.30;;;;;;;13.63;100.00;98615.72;5021626;28;20057;-73
2022/12/31 04:36:27;;;;;;;0.25;0.22;;;;;;;13.88;100.00;98650.94;5027521;28;20078;-75
2022/12/31 04:38:52;;;;;;;0.90;0.30;;;;;;;13.92;100.00;98665.78;5052975;28;20087;-73
2022/12/31 04:41:18;;;;;;;0.45;0.30;;;;;;;13.89;100.00;98659.97;5029563;28;20032;-75
2022/12/31 04:43:46;;;;;;;1.10;0.38;;;;;;;13.89;100.00;98641.75;5053229;28;20029;-74
2022/12/31 04:46:13;;;;;;;1.20;0.50;;;;;;;14.00;100.00;98659.19;5037271;28;20737;-75
2022/12/31 04:48:38;;;;;;;1.40;0.40;;;;;;;13.89;100.00;98655.34;5036541;28;20035;-74
2022/12/31 04:51:04;;;;;;;1.95;0.40;;;;;;;13.96;100.00;98661.53;5042261;28;20124;-74
2022/12/31 04:53:29;;;;;;;0.73;0.30;;;;;;;13.88;100.00;98669.16;5035887;28;20108;-73
2022/12/31 04:55:55;;;;;;;0.57;0.28;;;;;;;13.79;100.00;98668.66;5030791;28;20036;-74
2022/12/31 04:58:20;;;;;;;1.35;0.52;;;;;;;13.85;100.00;98678.59;5051340;28;20021;-72
2022/12/31 05:00:50;;;;;;;0.40;0.30;;;;;;;13.90;100.00;98681.47;5035853;28;20036;-75
2022/12/31 05:03:16;;;;;;;0.88;0.30;;;;;;;13.90;100.00;98664.34;5045340;28;20087;-73
2022/12/31 05:05:42;;;;;;;1.27;0.30;;;;;;;14.02;100.00;98681.56;5054656;28;20041;-73
2022/12/31 05:08:08;;;;;;;2.70;0.60;;;;;;;14.03;100.00;98665.00;5022462;28;20067;-74
2022/12/31 05:10:34;;;;;;;0.15;0.10;;;;;;;13.96;100.00;98657.97;5022720;28;20024;-74
2022/12/31 05:13:00;;;;;;;0.30;0.20;;;;;;;14.10;100.00;98675.78;5053532;28;20024;-74
2022/12/31 05:15:25;;;;;;;0.60;0.20;;;;;;;14.18;100.00;98677.38;5046646;28;20036;-73
2022/12/31 05:17:50;;;;;;;1.25;0.30;;;;;;;14.15;100.00;98675.13;5058497;28;20077;-72
2022/12/31 05:20:16;;;;;;;2.63;0.30;;;;;;;14.00;100.00;98653.75;5024434;28;20061;-73
2022/12/31 05:22:41;;;;;;;0.47;0.30;;;;;;;14.09;100.00;98685.00;5035634;28;20404;-73
2022/12/31 05:25:07;;;;;;;2.92;0.40;;;;;;;14.03;100.00;98680.47;5061802;28;20024;-75
2022/12/31 05:27:33;;;;;;;0.88;0.30;;;;;;;14.04;100.00;98684.84;5054695;28;20071;-75
2022/12/31 05:29:58;;;;;;;1.92;0.28;;;;;;;14.10;100.00;98683.97;5033493;28;20491;-74
2022/12/31 05:32:24;;;;;;;0.57;0.20;;;;;;;14.12;100.00;98678.28;5048925;28;20029;-75
2022/12/31 05:34:49;;;;;;;0.47;0.30;;;;;;;14.26;100.00;98674.31;5029683;28;20552;-75
2022/12/31 05:37:14;;;;;;;0.15;0.13;;;;;;;14.36;100.00;98676.50;5032186;28;20181;-76
2022/12/31 05:39:40;;;;;;;0.30;0.30;;;;;;;14.31;100.00;98670.94;5022040;28;20471;-74
2022/12/31 05:42:05;;;;;;;0.57;0.32;;;;;;;14.15;100.00;98656.91;5021754;28;20028;-75
2022/12/31 05:44:30;;;;;;;0.45;0.15;;;;;;;14.27;100.00;98677.88;5066138;28;20104;-73
2022/12/31 05:46:56;;;;;;;2.03;0.40;;;;;;;14.18;100.00;98666.50;5049114;28;20406;-74
2022/12/31 05:49:21;;;;;;;0.63;0.25;;;;;;;14.27;100.00;98673.25;5042176;28;20040;-77
2022/12/31 05:51:46;;;;;;;2.17;0.32;;;;;;;14.37;100.00;98684.41;5048265;28;20020;-73
2022/12/31 05:54:11;;;;;;;1.15;0.30;;;;;;;14.30;100.00;98671.97;5033547;28;20538;-75
2022/12/31 05:56:37;;;;;;;0.30;0.20;;;;;;;14.37;100.00;98680.88;5031691;28;20112;-74
2022/12/31 05:59:02;;;;;;;0.45;0.13;;;;;;;14.32;100.00;98673.41;5041011;28;20025;-75
2022/12/31 06:01:28;;;;;;;0.43;0.30;;;;;;;14.46;100.00;98698.53;5033492;28;20040;-75
2022/12/31 06:03:53;;;;;;;0.40;0.30;;;;;;;14.38;100.00;98679.81;5022164;28;20059;-75
2022/12/31 06:06:18;;;;;;;1.02;0.47;;;;;;;14.35;100.00;98669.38;5034380;28;20485;-74
2022/12/31 06:08:48;;;;;;;1.52;0.50;;;;;;;14.54;100.00;98708.28;5047024;28;20104;-74
2022/12/31 06:11:13;;;;;;;0.50;0.20;;;;;;;14.63;100.00;98717.81;5033329;28;20032;-75
2022/12/31 06:13:39;;;;;;;1.17;0.20;;;;;;;14.72;100.00;98726.47;5043475;28;20022;-75
2022/12/31 06:16:05;;;;;;;1.23;0.20;;;;;;;14.60;100.00;98701.94;5031918;28;20041;-78
2022/12/31 06:18:31;;;;;;;1.77;0.32;;;;;;;14.67;100.00;98710.81;5052611;28;20545;-75
2022/12/31 06:20:59;;;;;;;0.55;0.20;;;;;;;14.71;100.00;98725.66;5034497;28;20124;-77
2022/12/31 06:23:25;;;;;;;1.38;0.30;;;;;;;14.60;100.00;98721.00;5047288;28;20083;-77
2022/12/31 06:25:50;;;;;;;0.88;0.40;;;;;;;14.60;100.00;98716.38;5028584;28;20030;-75
2022/12/31 06:28:16;;;;;;;0.40;0.30;;;;;;;14.70;100.00;98724.00;5033149;28;20055;-74
2022/12/31 06:30:41;;;;;;;1.98;0.20;;;;;;;14.66;100.00;98723.63;5052142;28;20029;-75
2022/12/31 06:33:06;;;;;;;0.40;0.40;;;;;;;14.75;100.00;98742.34;5054264;28;20024;-72
2022/12/31 06:35:32;;;;;;;3.20;0.32;;;;;;;14.72;100.00;98737.38;5027605;28;20091;-71
2022/12/31 06:37:57;;;;;;;0.43;0.25;;;;;;;14.63;100.00;98734.97;5055086;28;20013;-78
2022/12/31 06:40:22;;;;;;;0.70;0.30;;;;;;;14.62;100.00;98733.31;5026794;28;20046;-77
2022/12/31 06:42:47;;;;;;;1.23;0.40;;;;;;;14.70;100.00;98734.88;5034523;28;20037;-73
2022/12/31 06:45:13;;;;;;;0.93;0.68;;;;;;;14.44;100.00;98703.41;5031860;28;20111;-81
2022/12/31 06:47:38;;;;;;;1.23;0.43;;;;;;;14.64;100.00;98725.72;5033808;28;20017;-77
2022/12/31 06:50:04;;;;;;;0.60;0.40;;;;;;;14.52;100.00;98722.13;5044512;28;20474;-74
2022/12/31 06:52:29;;;;;;;1.45;0.30;;;;;;;14.56;100.00;98747.84;5032050;28;20500;-78
2022/12/31 06:54:55;;;;;;;1.42;0.50;;;;;;;14.52;100.00;98749.34;5029124;28;20030;-80
2022/12/31 06:57:22;;;;;;;1.23;0.47;;;;;;;14.22;100.00;98717.47;5050161;28;20028;-79
2022/12/31 06:59:48;;;;;;;2.45;0.70;;;;;;;14.36;100.00;98741.81;5030429;28;20021;-70
2022/12/31 07:02:39;;;;;;;2.15;0.50;;;;;;;14.51;100.00;98758.56;5047532;28;20063;-70
2022/12/31 07:05:14;;;;;;;1.45;1.17;;;;;;;14.45;100.00;98754.88;5040704;28;20083;-70
2022/12/31 07:07:50;;;;;;;1.38;0.90;;;;;;;14.32;100.00;98768.66;5035053;28;20047;-79
2022/12/31 07:10:20;;;;;;;1.48;0.60;;;;;;;14.38;100.00;98764.19;5036733;28;20021;-69
2022/12/31 07:13:17;;;;;;;1.50;0.50;;;;;;;14.31;100.00;98763.44;5049908;28;20112;-71
2022/12/31 07:16:12;;;;;;;0.70;0.40;;;;;;;14.24;100.00;98769.78;5028357;28;22414;-77
2022/12/31 07:19:12;;;;;;;1.00;0.50;;;;;;;14.10;100.00;98773.75;5042968;28;20029;-77
2022/12/31 07:21:39;;;;;;;0.70;0.25;;;;;;;14.08;100.00;98775.84;5032245;28;20027;-68
2022/12/31 07:24:07;;;;;;;0.60;0.40;;;;;;;13.97;100.00;98754.84;5047937;28;20103;-69
2022/12/31 07:26:48;;;;;;;0.52;0.30;;;;;;;13.99;100.00;98766.31;5044959;28;20029;-70
2022/12/31 07:29:25;;;;;;;0.20;0.20;;;;;;;13.85;100.00;98764.81;5039074;28;20025;-69
2022/12/31 07:32:04;;;;;;;0.93;0.38;;;;;;;13.96;100.00;98778.50;5049385;28;20021;-69
2022/12/31 07:34:47;;;;;;;0.70;0.30;;;;;;;13.94;100.00;98777.06;5044504;28;20029;-70
2022/12/31 07:37:30;;;;;;;0.90;0.40;;;;;;;13.87;100.00;98766.25;5043626;28;20028;-71
2022/12/31 07:40:26;;;;;;;2.08;0.30;;;;;;;13.98;100.00;98778.25;5039522;28;20130;-70
2022/12/31 07:43:14;;;;;;;0.73;0.40;;;;;;;13.98;100.00;98780.97;5044218;28;20036;-69
2022/12/31 07:45:51;;;;;;;1.15;0.40;;;;;;;14.02;100.00;98784.94;5036580;28;20364;-69
2022/12/31 07:48:23;;;;;;;0.55;0.22;;;;;;;14.07;100.00;98789.66;5043325;28;20029;-69
2022/12/31 07:50:50;;;;;;;2.30;0.38;;;;;;;13.99;100.00;98783.50;5042613;28;20067;-69
2022/12/31 07:53:15;;;;;;;2.08;0.70;;;;;;;13.98;100.00;98783.69;5040967;28;20021;-78
2022/12/31 07:55:41;;;;;;;0.57;0.35;;;;;;;13.98;100.00;98781.81;5028429;28;20055;-75
2022/12/31 07:58:24;;;;;;;0.60;0.40;;;;;;;14.07;100.00;98779.63;5029790;28;20489;-71
2022/12/31 08:00:51;;;;;;;1.05;0.57;;;;;;;14.09;100.00;98788.38;5034415;28;20655;-77
2022/12/31 08:03:39;;;;;;;0.93;0.40;;;;;;;14.27;100.00;98806.59;5047364;28;20056;-75
2022/12/31 08:06:29;;;;;;;1.00;0.52;;;;;;;14.29;100.00;98798.22;5023356;28;20029;-75
2022/12/31 08:09:28;;;;;;;1.15;0.63;;;;;;;14.27;100.00;98817.50;5043880;28;20429;-77
2022/12/31 08:11:56;;;;;;;2.15;0.57;;;;;;;14.31;100.00;98821.44;5027780;28;20103;-78
2022/12/31 08:14:22;;;;;;;0.30;0.22;;;;;;;14.29;100.00;98815.38;5027905;28;20537;-75
2022/12/31 08:16:47;;;;;;;1.60;0.40;;;;;;;14.58;100.00;98829.31;5020523;28;20065;-83
2022/12/31 08:19:27;;;;;;;2.97;0.60;;;;;;;14.82;100.00;98813.91;5039653;28;20083;-70
2022/12/31 08:21:52;;;;;;;;;;;;;;;15.10;100.00;98826.91;5031379;28;20052;-70
2022/12/31 08:24:20;;;;;;;0.75;0.50;;;;;;;15.15;100.00;98820.78;5044778;28;19913;-71
2022/12/31 08:26:59;;;;;;;0.60;0.30;;;;;;;15.21;100.00;98833.47;5046104;28;20110;-71
2022/12/31 08:29:41;;;;;;;0.55;0.40;;;;;;;15.25;100.00;98829.22;5050736;28;20483;-72
2022/12/31 08:32:25;;;;;;;1.58;0.70;;;;;;;15.18;100.00;98823.03;5048353;28;20037;-70
2022/12/31 08:35:10;;;;;;;1.13;0.35;;;;;;;15.11;100.00;98813.03;5035719;28;20064;-71
2022/12/31 08:37:41;;;;;;;0.98;0.82;;;;;;;15.18;100.00;98828.50;5039747;28;20029;-71
2022/12/31 08:40:15;;;;;;;1.00;0.63;;;;;;;15.30;100.00;98826.59;5026290;28;20110;-70
2022/12/31 08:42:57;;;;;;;1.73;0.90;;;;;;;15.33;100.00;98834.34;5046605;28;20031;-71
2022/12/31 08:45:31;;;;;;;5.10;1.77;;;;;;;15.38;100.00;98831.75;5044737;28;20086;-77
2022/12/31 08:48:25;;;;;;;8.38;2.63;;;;;;;15.48;100.00;98833.88;5029756;28;20112;-79
2022/12/31 08:50:52;;;;;;;14.52;4.05;;;;;;;15.44;100.00;98819.06;5029384;28;20871;-79
2022/12/31 08:53:17;;;;;;;8.25;2.03;;;;;;;15.56;100.00;98838.97;5035085;28;20013;-77
2022/12/31 08:55:45;;;;;;;4.57;1.08;;;;;;;15.61;100.00;98855.47;5044504;28;20050;-78
2022/12/31 08:58:55;;;;;;;0.93;0.40;;;;;;;15.66;100.00;98858.31;5031484;28;20032;-79
2022/12/31 09:01:26;;;;;;;13.38;4.20;;;;;;;15.77;100.00;98853.97;5008457;28;20127;-80
2022/12/31 09:04:17;;;;;;;5.53;1.40;;;;;;;15.85;100.00;98861.84;5038731;28;21041;-74
2022/12/31 09:06:52;;;;;;;3.80;1.33;;;;;;;15.92;100.00;98868.00;5040591;28;20036;-69
2022/12/31 09:09:39;;;;;;;3.03;1.25;;;;;;;15.96;100.00;98844.63;5048289;28;20035;-70
2022/12/31 09:12:26;;;;;;;3.63;0.70;;;;;;;16.29;100.00;98858.72;5070749;28;20504;-69
2022/12/31 09:15:03;;;;;;;2.05;0.95;;;;;;;16.65;100.00;98861.16;5053283;28;20104;-69
2022/12/31 09:17:42;;;;;;;2.97;1.33;;;;;;;17.24;100.00;98855.53;5049805;28;20032;-70
2022/12/31 09:20:14;;;;;;;1.90;0.77;;;;;;;18.65;100.00;98834.41;5025427;28;20516;-70
2022/12/31 09:22:39;;;;;;;1.23;0.75;;;;;;;20.06;100.00;98853.66;5034745;28;20078;-70
2022/12/31 09:25:05;;;;;;;5.03;2.10;;;;;;;20.40;100.00;98848.66;5047573;28;20060;-76
2022/12/31 09:27:49;;;;;;;15.93;6.05;;;;;;;20.21;100.00;98845.53;5032980;28;20029;-78
2022/12/31 09:30:16;;;;;;;15.13;6.25;;;;;;;19.29;100.00;98832.97;5044970;28;20087;-77
2022/12/31 09:32:56;;;;;;;11.40;5.30;;;;;;;19.17;100.00;98857.78;5054956;28;20021;-74
2022/12/31 09:35:52;;;;;;;11.73;5.47;;;;;;;19.30;100.00;98856.56;5030260;28;20112;-74
2022/12/31 09:38:58;;;;;;;8.77;4.60;;;;;;;18.47;100.00;98864.84;5043412;28;20036;-75
2022/12/31 09:41:42;;;;;;;1.30;0.70;;;;;;;17.89;100.00;98847.88;4994115;28;20037;-75
2022/12/31 09:44:38;;;;;;;1.85;0.88;;;;;;;18.07;100.00;98865.94;5053467;28;20063;-74
2022/12/31 09:47:34;;;;;;;6.25;2.50;;;;;;;18.04;100.00;98858.22;5033274;28;20116;-74
2022/12/31 09:50:21;;;;;;;3.17;1.88;;;;;;;18.44;100.00;98859.88;5051420;28;20032;-73
2022/12/31 09:53:01;;;;;;;4.38;2.50;;;;;;;18.86;100.00;98862.09;5049908;28;20033;-71
2022/12/31 09:55:36;;;;;;;1.33;0.93;;;;;;;18.97;100.00;98861.16;5045026;28;20022;-71
2022/12/31 09:58:39;;;;;;;1.48;0.70;;;;;;;20.07;100.00;98860.84;5018414;28;20025;-70
2022/12/31 10:01:29;;;;;;;2.67;1.15;;;;;;;19.31;100.00;98850.81;4980034;28;20096;-71
2022/12/31 10:04:03;;;;;;;18.98;5.47;;;;;;;20.22;100.00;98852.66;5042554;28;20067;-72
2022/12/31 10:07:01;;;;;;;5.50;2.15;;;;;;;21.36;100.00;98863.06;5035346;28;20029;-71
2022/12/31 10:09:42;;;;;;;2.40;1.00;;;;;;;21.91;94.06;98858.72;5044655;28;20123;-73
2022/12/31 10:12:38;;;;;;;1.70;0.80;;;;;;;21.19;100.00;98874.28;5038249;28;20029;-72
2022/12/31 10:15:07;;;;;;;2.75;0.60;;;;;;;20.30;100.00;98865.94;5045757;28;20082;-73
2022/12/31 10:18:00;;;;;;;0.50;0.30;;;;;;;20.05;100.00;98858.34;5042367;28;20033;-73
2022/12/31 10:20:59;;;;;;;1.10;0.70;;;;;;;19.91;100.00;98859.84;5044627;28;20113;-75
2022/12/31 10:23:41;;;;;;;;;;;;;;;20.03;100.00;98852.28;5049035;28;20044;-70
2022/12/31 10:26:31;;;;;;;0.95;0.40;;;;;;;19.14;100.00;98856.41;5044754;28;19960;-72
2022/12/31 10:29:18;;;;;;;1.52;0.70;;;;;;;18.99;100.00;98858.97;5029379;28;20086;-73
2022/12/31 10:32:14;;;;;;;1.40;0.70;;;;;;;19.09;100.00;98855.50;5053262;28;20024;-74
2022/12/31 10:34:54;;;;;;;1.20;0.73;;;;;;;19.52;100.00;98864.72;5032332;28;20081;-74
2022/12/31 10:37:26;;;;;;;1.05;0.63;;;;;;;21.75;100.00;98849.66;5028034;28;20025;-73
2022/12/31 10:40:29;;;;;;;1.65;0.45;;;;;;;24.24;73.20;98840.44;5042925;28;20036;-69
2022/12/31 10:43:07;;;;;;;0.47;0.40;;;;;;;24.52;67.44;98840.72;5046687;28;20044;-73
2022/12/31 10:45:51;;;;;;;2.25;0.43;;;;;;;24.36;67.44;98830.91;5053013;28;20032;-72
2022/12/31 10:48:56;;;;;;;1.33;0.40;;;;;;;24.92;63.31;98846.88;5051586;28;20083;-72
2022/12/31 10:52:16;;;;;;;0.35;0.30;;;;;;;24.78;62.26;98848.72;5048135;28;20067;-75
2022/12/31 10:54:59;;;;;;;1.67;0.40;;;;;;;22.97;68.65;98851.31;4950972;28;20031;-71
2022/12/31 10:58:03;;;;;;;1.17;0.35;;;;;;;25.41;62.41;98829.03;5036394;28;20045;-69
2022/12/31 11:00:33;;;;;;;0.95;0.30;;;;;;;25.14;60.73;98807.53;4963836;28;20035;-71
2022/12/31 11:03:12;;;;;;;0.30;0.22;;;;;;;25.43;58.38;98817.66;4964059;28;20424;-71
2022/12/31 11:06:11;;;;;;;1.17;0.35;;;;;;;25.29;59.34;98826.75;5008180;28;20033;-71
2022/12/31 11:09:00;;;;;;;0.45;0.28;;;;;;;25.30;58.70;98814.53;5035014;28;20030;-70
2022/12/31 11:11:51;;;;;;;0.82;0.20;;;;;;;25.15;57.87;98811.94;5014804;28;20104;-70
2022/12/31 11:14:33;;;;;;;2.13;0.35;;;;;;;24.78;60.23;98821.03;5043588;28;20025;-71
2022/12/31 11:17:31;;;;;;;1.30;0.30;;;;;;;25.33;59.12;98818.63;5045418;28;20119;-70
2022/12/31 11:20:40;;;;;;;2.38;0.95;;;;;;;24.14;61.19;98821.19;5045295;28;20029;-70
2022/12/31 11:23:14;;;;;;;0.57;0.30;;;;;;;24.60;59.85;98804.13;5028724;28;20491;-71
2022/12/31 11:26:11;;;;;;;4.30;0.32;;;;;;;24.15;61.58;98813.72;5022086;28;20036;-71
2022/12/31 11:28:51;;;;;;;1.38;0.40;;;;;;;23.83;63.40;98813.19;5024262;28;20909;-69
2022/12/31 11:31:39;;;;;;;1.70;0.38;;;;;;;24.34;62.05;98822.09;5046349;28;20504;-73
2022/12/31 11:34:37;;;;;;;0.63;0.32;;;;;;;24.49;61.12;98811.69;5033627;28;20036;-74
2022/12/31 11:37:27;;;;;;;0.95;0.40;;;;;;;23.81;60.91;98804.38;5027575;28;20037;-69
2022/12/31 11:40:18;;;;;;;0.55;0.50;;;;;;;24.71;58.86;98802.88;5041922;28;20493;-70
2022/12/31 11:42:57;;;;;;;0.77;0.20;;;;;;;25.21;57.40;98804.44;5042419;28;20037;-70
2022/12/31 11:45:37;;;;;;;;;;;;;;;24.57;58.56;98804.69;5023186;28;20032;-72
2022/12/31 11:48:21;;;;;;;1.27;0.35;;;;;;;24.62;57.60;98804.63;5021321;28;19912;-70
2022/12/31 11:50:55;;;;;;;0.60;0.20;;;;;;;24.68;57.84;98797.94;5042422;28;20487;-73
2022/12/31 11:53:50;;;;;;;1.17;0.30;;;;;;;25.42;56.00;98785.56;5031450;28;20033;-69
2022/12/31 11:56:16;;;;;;;0.52;0.30;;;;;;;25.12;55.30;98796.75;5027871;28;20041;-68
2022/12/31 11:58:47;;;;;;;1.10;0.10;;;;;;;25.18;56.10;98802.25;5027842;28;20029;-67
2022/12/31 12:01:25;;;;;;;0.52;0.40;;;;;;;25.15;56.09;98792.56;5025227;28;20102;-76
2022/12/31 12:03:51;;;;;;;0.57;0.30;;;;;;;25.74;54.79;98780.00;5045356;28;20025;-73
2022/12/31 12:06:22;;;;;;;0.50;0.20;;;;;;;25.74;54.61;98793.06;5049059;28;20044;-69
2022/12/31 12:08:48;;;;;;;0.70;0.40;;;;;;;25.09;53.88;98791.81;5031919;28;20596;-70
2022/12/31 12:11:21;;;;;;;0.38;0.30;;;;;;;24.73;55.15;98788.72;5044756;28;20032;-70
2022/12/31 12:13:46;;;;;;;1.55;0.25;;;;;;;24.31;57.42;98781.19;5032445;28;20025;-76
2022/12/31 12:16:12;;;;;;;3.25;0.40;;;;;;;24.79;55.65;98776.50;5028385;28;20055;-77
2022/12/31 12:18:48;;;;;;;1.48;0.20;;;;;;;24.79;55.56;98795.03;5032294;28;20017;-73